createdAt,value
2023-01-21T00:00:59.871Z,20.92
2023-01-21T00:03:28.125Z,32.58
2023-01-21T00:05:58.313Z,17.52
2023-01-21T00:08:26.590Z,17.40
2023-01-21T00:10:55.062Z,23.40
2023-01-21T00:13:24.771Z,15.90
2023-01-21T00:15:55.572Z,20.15
2023-01-21T00:18:23.728Z,14.40
2023-01-21T00:20:51.919Z,13.73
2023-01-21T00:23:20.275Z,24.50
2023-01-21T00:25:48.375Z,20.27
2023-01-21T00:28:16.619Z,19.70
2023-01-21T00:30:46.197Z,26.00
2023-01-21T00:33:14.359Z,19.15
2023-01-21T00:35:43.300Z,17.17
2023-01-21T00:38:11.403Z,22.10
2023-01-21T00:40:39.495Z,28.15
2023-01-21T00:43:09.653Z,28.65
2023-01-21T00:45:38.011Z,27.95
2023-01-21T00:48:07.755Z,21.65
2023-01-21T00:50:35.921Z,21.67
2023-01-21T00:53:04.023Z,19.88
2023-01-21T00:55:32.105Z,21.15
2023-01-21T00:58:00.223Z,20.55
2023-01-21T01:00:28.592Z,26.20
2023-01-21T01:02:56.763Z,26.48
2023-01-21T01:05:28.320Z,28.50
2023-01-21T01:07:56.420Z,27.85
2023-01-21T01:10:24.574Z,29.00
2023-01-21T01:12:52.705Z,23.70
2023-01-21T01:15:20.887Z,23.48
2023-01-21T01:17:49.286Z,33.30
2023-01-21T01:20:17.690Z,31.38
2023-01-21T01:22:47.426Z,34.17
2023-01-21T01:25:15.639Z,27.42
2023-01-21T01:27:43.758Z,28.33
2023-01-21T01:30:13.189Z,23.42
2023-01-21T01:32:41.510Z,36.15
2023-01-21T01:35:10.656Z,24.02
2023-01-21T01:37:38.736Z,28.05
2023-01-21T01:40:12.590Z,29.60
2023-01-21T01:42:40.707Z,28.08
2023-01-21T01:45:20.269Z,27.63
2023-01-21T01:47:58.217Z,32.20
2023-01-21T01:50:28.491Z,35.38
2023-01-21T01:52:57.392Z,16.98
2023-01-21T01:55:27.214Z,21.67
2023-01-21T01:57:56.512Z,26.05
2023-01-21T02:01:12.395Z,31.90
2023-01-21T02:03:45.852Z,20.95
2023-01-21T02:06:47.222Z,20.95
2023-01-21T02:09:15.307Z,25.20
2023-01-21T02:11:44.832Z,31.90
2023-01-21T02:14:13.202Z,24.98
2023-01-21T02:17:07.356Z,34.55
2023-01-21T02:20:07.973Z,22.70
2023-01-21T02:22:39.327Z,24.33
2023-01-21T02:25:49.364Z,34.35
2023-01-21T02:28:37.694Z,23.50
2023-01-21T02:31:29.752Z,24.27
2023-01-21T02:34:09.479Z,34.22
2023-01-21T02:36:45.206Z,42.17
2023-01-21T02:39:26.808Z,26.75
2023-01-21T02:42:04.928Z,38.60
2023-01-21T02:44:39.586Z,42.13
2023-01-21T02:47:16.370Z,29.48
2023-01-21T02:49:50.118Z,35.92
2023-01-21T02:52:19.685Z,33.90
2023-01-21T02:54:51.061Z,43.60
2023-01-21T02:57:31.755Z,33.00
2023-01-21T03:00:01.739Z,39.60
2023-01-21T03:02:49.516Z,28.27
2023-01-21T03:05:28.483Z,32.30
2023-01-21T03:08:06.457Z,36.70
2023-01-21T03:10:41.327Z,40.60
2023-01-21T03:13:36.594Z,32.17
2023-01-21T03:16:25.322Z,33.00
2023-01-21T03:18:56.848Z,33.28
2023-01-21T03:21:28.974Z,42.95
2023-01-21T03:23:59.120Z,26.15
2023-01-21T03:26:32.180Z,41.15
2023-01-21T03:29:07.296Z,37.42
2023-01-21T03:31:37.502Z,37.40
2023-01-21T03:34:09.607Z,38.28
2023-01-21T03:36:43.499Z,35.33
2023-01-21T03:39:17.439Z,33.78
2023-01-21T03:41:45.824Z,34.50
2023-01-21T03:44:14.118Z,32.85
2023-01-21T03:46:49.875Z,36.53
2023-01-21T03:49:22.729Z,36.42
2023-01-21T03:51:56.000Z,19.75
2023-01-21T03:54:24.800Z,34.88
2023-01-21T03:56:52.975Z,29.30
2023-01-21T03:59:21.177Z,28.42
2023-01-21T04:01:49.336Z,31.90
2023-01-21T04:04:17.466Z,30.55
2023-01-21T04:06:45.676Z,32.00
2023-01-21T04:09:15.172Z,25.05
2023-01-21T04:11:43.401Z,31.02
2023-01-21T04:14:11.561Z,30.80
2023-01-21T04:16:39.698Z,31.27
2023-01-21T04:19:07.892Z,31.42
2023-01-21T04:21:36.058Z,28.83
2023-01-21T04:24:04.653Z,30.30
2023-01-21T04:26:34.175Z,28.52
2023-01-21T04:29:02.302Z,25.80
2023-01-21T04:31:30.508Z,30.15
2023-01-21T04:33:58.733Z,24.08
2023-01-21T04:36:28.926Z,26.52
2023-01-21T04:38:57.032Z,29.95
2023-01-21T04:41:25.599Z,28.40
2023-01-21T04:43:55.193Z,27.02
2023-01-21T04:46:23.462Z,27.15
2023-01-21T04:48:51.614Z,24.77
2023-01-21T04:51:19.799Z,28.92
2023-01-21T04:53:47.974Z,24.25
2023-01-21T04:56:16.019Z,27.15
2023-01-21T04:58:44.222Z,24.20
2023-01-21T05:01:13.772Z,26.85
2023-01-21T05:03:41.926Z,28.02
2023-01-21T05:06:10.082Z,29.08
2023-01-21T05:08:42.170Z,28.05
2023-01-21T05:11:11.601Z,28.65
2023-01-21T05:13:39.696Z,28.17
2023-01-21T05:16:10.134Z,26.50
2023-01-21T05:18:40.828Z,29.50
2023-01-21T05:21:09.687Z,31.05
2023-01-21T05:23:37.813Z,29.40
2023-01-21T05:26:06.179Z,30.02
2023-01-21T05:28:34.309Z,28.50
2023-01-21T05:31:02.598Z,33.25
2023-01-21T05:33:32.428Z,30.73
2023-01-21T05:36:03.199Z,28.42
2023-01-21T05:38:31.456Z,28.88
2023-01-21T05:41:00.502Z,31.80
2023-01-21T05:43:28.994Z,29.35
2023-01-21T05:45:57.787Z,30.00
2023-01-21T05:48:25.989Z,31.05
2023-01-21T05:50:54.621Z,30.63
2023-01-21T05:53:24.904Z,30.42
2023-01-21T05:55:54.139Z,30.58
2023-01-21T05:58:23.293Z,33.20
2023-01-21T06:00:51.958Z,28.23
2023-01-21T06:03:20.324Z,28.17
2023-01-21T06:05:50.715Z,31.98
2023-01-21T06:08:19.554Z,33.58
2023-01-21T06:10:49.150Z,31.40
2023-01-21T06:13:17.967Z,35.33
2023-01-21T06:15:46.258Z,37.97
2023-01-21T06:18:14.656Z,42.53
2023-01-21T06:20:42.821Z,33.88
2023-01-21T06:23:11.002Z,35.63
2023-01-21T06:25:39.117Z,33.58
2023-01-21T06:28:09.973Z,35.30
2023-01-21T06:30:40.304Z,29.17
2023-01-21T06:33:08.521Z,28.27
2023-01-21T06:35:37.097Z,26.75
2023-01-21T06:38:05.430Z,28.17
2023-01-21T06:40:33.541Z,28.67
2023-01-21T06:43:01.694Z,30.27
2023-01-21T06:45:31.198Z,27.67
2023-01-21T06:48:00.117Z,27.63
2023-01-21T06:50:28.275Z,25.77
2023-01-21T06:52:56.453Z,26.85
2023-01-21T06:55:24.603Z,25.13
2023-01-21T06:57:52.740Z,24.75
2023-01-21T07:00:21.856Z,25.75
2023-01-21T07:02:51.369Z,23.77
2023-01-21T07:05:20.763Z,24.60
2023-01-21T07:07:48.851Z,28.73
2023-01-21T07:10:17.878Z,20.88
2023-01-21T07:12:46.208Z,27.88
2023-01-21T07:15:14.734Z,33.00
2023-01-21T07:17:43.082Z,26.20
2023-01-21T07:20:13.376Z,28.98
2023-01-21T07:22:41.785Z,25.75
2023-01-21T07:25:10.647Z,23.52
2023-01-21T07:27:38.972Z,27.00
2023-01-21T07:30:08.451Z,28.60
2023-01-21T07:32:36.575Z,32.55
2023-01-21T07:35:05.034Z,27.15
2023-01-21T07:37:34.699Z,32.33
2023-01-21T07:40:02.868Z,34.03
2023-01-21T07:42:31.043Z,28.48
2023-01-21T07:44:59.709Z,27.48
2023-01-21T07:47:27.887Z,27.88
2023-01-21T07:49:56.074Z,31.20
2023-01-21T07:52:24.284Z,30.40
2023-01-21T07:54:53.828Z,27.98
2023-01-21T07:57:21.984Z,32.72
2023-01-21T07:59:50.116Z,29.92
2023-01-21T08:02:18.387Z,31.90
2023-01-21T08:04:46.645Z,32.10
2023-01-21T08:07:14.931Z,34.70
2023-01-21T08:09:43.054Z,35.75
2023-01-21T08:12:12.840Z,32.88
2023-01-21T08:14:41.061Z,40.60
2023-01-21T08:17:09.194Z,41.45
2023-01-21T08:19:39.409Z,38.60
2023-01-21T08:22:07.616Z,38.88
2023-01-21T08:24:35.841Z,44.03
2023-01-21T08:27:04.157Z,44.30
2023-01-21T08:29:33.836Z,45.17
2023-01-21T08:32:02.101Z,38.95
2023-01-21T08:34:30.472Z,45.03
2023-01-21T08:36:58.700Z,29.55
2023-01-21T08:39:29.058Z,40.80
2023-01-21T08:41:59.211Z,46.00
2023-01-21T08:44:27.403Z,46.47
2023-01-21T08:46:56.955Z,33.50
2023-01-21T08:49:25.177Z,33.47
2023-01-21T08:51:53.485Z,34.42
2023-01-21T08:54:21.701Z,34.55
2023-01-21T08:56:49.942Z,26.80
2023-01-21T08:59:20.192Z,33.25
2023-01-21T09:01:48.339Z,28.08
2023-01-21T09:04:18.048Z,28.88
2023-01-21T09:06:46.265Z,31.27
2023-01-21T09:09:14.417Z,31.35
2023-01-21T09:11:42.751Z,29.88
2023-01-21T09:14:10.960Z,28.35
2023-01-21T09:16:41.472Z,27.83
2023-01-21T09:19:09.707Z,29.55
2023-01-21T09:21:39.313Z,30.45
2023-01-21T09:24:08.234Z,30.40
2023-01-21T09:26:36.536Z,31.70
2023-01-21T09:29:04.869Z,37.72
2023-01-21T09:31:33.215Z,36.45
2023-01-21T09:34:03.796Z,35.28
2023-01-21T09:36:33.356Z,36.08
2023-01-21T09:39:03.461Z,30.38
2023-01-21T09:41:37.177Z,33.03
2023-01-21T09:44:16.104Z,29.95
2023-01-21T09:46:50.812Z,36.40
2023-01-21T09:49:23.506Z,31.38
2023-01-21T09:51:57.181Z,37.95
2023-01-21T09:54:32.194Z,34.22
2023-01-21T09:57:29.508Z,36.05
2023-01-21T10:00:22.923Z,32.10
2023-01-21T10:03:00.517Z,34.92
2023-01-21T10:05:58.296Z,32.63
2023-01-21T10:08:33.202Z,34.63
2023-01-21T10:11:18.858Z,36.60
2023-01-21T10:14:05.073Z,33.65
2023-01-21T10:16:40.956Z,33.20
2023-01-21T10:19:17.517Z,39.75
2023-01-21T10:21:52.635Z,39.17
2023-01-21T10:24:24.650Z,34.80
2023-01-21T10:26:55.517Z,29.90
2023-01-21T10:29:27.034Z,35.35
2023-01-21T10:31:59.717Z,39.03
2023-01-21T10:34:31.636Z,36.95
2023-01-21T10:37:12.669Z,34.13
2023-01-21T10:39:48.589Z,42.78
2023-01-21T10:45:00.843Z,43.95
2023-01-21T10:47:38.172Z,39.63
2023-01-21T10:50:30.065Z,36.45
2023-01-21T10:53:02.673Z,39.13
2023-01-21T10:55:42.145Z,38.90
2023-01-21T10:58:25.348Z,40.05
2023-01-21T11:00:55.503Z,43.53
2023-01-21T11:03:32.702Z,49.15
2023-01-21T11:06:02.924Z,48.42
2023-01-21T11:08:31.446Z,49.28
2023-01-21T11:11:01.481Z,39.53
2023-01-21T11:13:31.339Z,40.08
2023-01-21T11:16:01.232Z,38.65
2023-01-21T11:18:32.934Z,35.88
2023-01-21T11:21:03.698Z,36.30
2023-01-21T11:23:35.383Z,38.58
2023-01-21T11:26:10.213Z,35.83
2023-01-21T11:28:41.991Z,40.60
2023-01-21T11:31:15.042Z,38.47
2023-01-21T11:33:44.277Z,37.83
2023-01-21T11:36:17.606Z,38.67
2023-01-21T11:38:47.439Z,40.63
2023-01-21T11:41:22.514Z,37.58
2023-01-21T11:43:56.617Z,39.77
2023-01-21T11:46:32.449Z,43.72
2023-01-21T11:49:23.973Z,34.88
2023-01-21T11:51:52.699Z,41.58
2023-01-21T11:54:22.255Z,39.65
2023-01-21T11:56:56.493Z,41.30
2023-01-21T11:59:33.929Z,35.95
2023-01-21T12:02:09.429Z,46.63
2023-01-21T12:04:38.394Z,52.50
2023-01-21T12:07:07.702Z,42.22
2023-01-21T12:09:36.358Z,45.35
2023-01-21T12:12:25.501Z,44.35
2023-01-21T12:14:59.996Z,43.78
2023-01-21T12:17:45.068Z,42.55
2023-01-21T12:20:28.875Z,49.47
2023-01-21T12:23:15.386Z,36.45
2023-01-21T12:28:49.000Z,32.17
2023-01-21T12:31:27.180Z,32.53
2023-01-21T12:34:04.140Z,40.55
2023-01-21T12:37:02.555Z,50.50
2023-01-21T12:40:11.343Z,48.75
2023-01-21T12:43:16.357Z,55.10
2023-01-21T12:45:50.502Z,70.65
2023-01-21T12:48:27.769Z,56.72
2023-01-21T12:51:07.569Z,49.65
2023-01-21T12:53:43.147Z,48.63
2023-01-21T12:56:23.642Z,38.70
2023-01-21T12:59:16.674Z,34.08
2023-01-21T13:01:54.894Z,32.97
2023-01-21T13:04:41.343Z,41.17
2023-01-21T13:09:47.765Z,35.47
2023-01-21T13:12:20.912Z,30.98
2023-01-21T13:14:55.384Z,35.60
2023-01-21T13:17:25.101Z,38.15
2023-01-21T13:19:54.918Z,32.33
2023-01-21T13:22:36.627Z,36.03
2023-01-21T13:25:19.855Z,32.50
2023-01-21T13:27:55.632Z,33.58
2023-01-21T13:30:35.000Z,33.88
2023-01-21T13:33:23.064Z,41.58
2023-01-21T13:36:04.094Z,35.50
2023-01-21T13:38:37.614Z,41.15
2023-01-21T13:41:25.835Z,37.63
2023-01-21T13:44:14.461Z,35.42
2023-01-21T13:46:57.615Z,34.03
2023-01-21T13:49:58.772Z,34.50
2023-01-21T13:52:37.887Z,34.80
2023-01-21T13:55:25.796Z,31.42
2023-01-21T13:58:07.214Z,31.77
2023-01-21T14:00:40.557Z,32.25
2023-01-21T14:03:22.099Z,32.53
2023-01-21T14:05:56.330Z,33.33
2023-01-21T14:08:32.191Z,34.70
2023-01-21T14:11:04.874Z,34.00
2023-01-21T14:13:58.467Z,31.02
2023-01-21T14:16:46.521Z,31.67
2023-01-21T14:19:44.692Z,33.97
2023-01-21T14:22:29.857Z,30.35
2023-01-21T14:25:13.875Z,27.13
2023-01-21T14:27:51.599Z,29.38
2023-01-21T14:30:25.626Z,38.33
2023-01-21T14:32:58.089Z,33.78
2023-01-21T14:35:32.957Z,33.38
2023-01-21T14:38:12.522Z,35.17
2023-01-21T14:40:50.668Z,30.60
2023-01-21T14:43:41.241Z,33.42
2023-01-21T14:46:26.658Z,37.00
2023-01-21T14:49:04.330Z,48.47
2023-01-21T14:51:35.664Z,41.88
2023-01-21T14:54:10.366Z,31.75
2023-01-21T14:56:41.081Z,37.35
2023-01-21T14:59:33.304Z,40.33
2023-01-21T15:02:04.752Z,34.75
2023-01-21T15:04:37.687Z,25.25
2023-01-21T15:07:10.792Z,28.63
2023-01-21T15:09:44.811Z,24.45
2023-01-21T15:12:20.864Z,28.02
2023-01-21T15:14:49.792Z,24.73
2023-01-21T15:17:44.977Z,27.80
2023-01-21T15:20:40.882Z,38.35
2023-01-21T15:23:21.229Z,43.95
2023-01-21T15:26:30.403Z,47.72
2023-01-21T15:29:35.624Z,42.58
2023-01-21T15:32:38.202Z,33.38
2023-01-21T15:35:16.937Z,34.53
2023-01-21T15:37:47.392Z,32.42
2023-01-21T15:40:27.264Z,33.50
2023-01-21T15:43:01.712Z,36.85
2023-01-21T15:45:42.666Z,35.10
2023-01-21T15:48:42.009Z,31.45
2023-01-21T15:51:21.292Z,32.15
2023-01-21T15:54:02.105Z,35.78
2023-01-21T15:56:43.114Z,35.25
2023-01-21T15:59:25.710Z,38.42
2023-01-21T16:02:16.310Z,42.53
2023-01-21T16:04:56.226Z,49.30
2023-01-21T16:07:35.805Z,34.47
2023-01-21T16:10:14.267Z,46.83
2023-01-21T16:12:52.777Z,47.53
2023-01-21T16:15:30.234Z,47.85
2023-01-21T16:18:15.945Z,35.95
2023-01-21T16:20:47.428Z,46.63
2023-01-21T16:23:21.326Z,41.47
2023-01-21T16:25:52.242Z,38.97
2023-01-21T16:28:22.861Z,44.03
2023-01-21T16:30:56.624Z,44.03
2023-01-21T16:33:27.179Z,43.30
2023-01-21T16:35:57.376Z,44.25
2023-01-21T16:38:30.951Z,39.53
2023-01-21T16:41:20.444Z,44.97
2023-01-21T16:43:50.875Z,43.35
2023-01-21T16:46:22.368Z,35.38
2023-01-21T16:48:55.578Z,38.20
2023-01-21T16:51:28.790Z,35.92
2023-01-21T16:54:16.533Z,36.35
2023-01-21T16:56:51.439Z,38.55
2023-01-21T16:59:21.189Z,39.78
2023-01-21T17:01:50.395Z,36.88
2023-01-21T17:04:21.003Z,36.42
2023-01-21T17:06:53.066Z,33.67
2023-01-21T17:09:30.262Z,36.58
2023-01-21T17:12:06.587Z,25.23
2023-01-21T17:14:36.413Z,31.65
2023-01-21T17:17:08.873Z,31.83
2023-01-21T17:19:44.865Z,35.22
2023-01-21T17:24:57.641Z,35.55
2023-01-21T17:27:27.065Z,31.45
2023-01-21T17:30:16.290Z,30.33
2023-01-21T17:32:52.999Z,34.38
2023-01-21T17:35:25.146Z,39.42
2023-01-21T17:37:59.294Z,41.13
2023-01-21T17:40:31.905Z,44.67
2023-01-21T17:43:03.735Z,30.88
2023-01-21T17:45:36.828Z,48.13
2023-01-21T17:48:10.472Z,36.15
2023-01-21T17:50:48.465Z,30.85
2023-01-21T17:53:24.240Z,29.77
2023-01-21T17:56:04.263Z,26.95
2023-01-21T17:58:46.008Z,27.15
2023-01-21T18:01:17.949Z,28.90
2023-01-21T18:03:47.138Z,23.25
2023-01-21T18:06:24.492Z,22.45
2023-01-21T18:08:54.298Z,22.80
2023-01-21T18:11:25.626Z,21.92
2023-01-21T18:13:54.415Z,25.20
2023-01-21T18:16:24.013Z,21.77
2023-01-21T18:18:54.495Z,21.33
2023-01-21T18:21:25.620Z,24.45
2023-01-21T18:23:55.052Z,19.55
2023-01-21T18:26:29.485Z,15.55
2023-01-21T18:28:59.207Z,22.77
2023-01-21T18:31:28.427Z,24.17
2023-01-21T18:33:58.311Z,23.17
2023-01-21T18:36:30.141Z,19.33
2023-01-21T18:38:59.121Z,23.23
2023-01-21T18:41:30.010Z,20.50
2023-01-21T18:43:59.132Z,17.55
2023-01-21T18:46:27.576Z,17.90
2023-01-21T18:48:56.856Z,20.05
2023-01-21T18:51:26.719Z,19.98
2023-01-21T18:53:57.475Z,16.80
2023-01-21T18:56:26.422Z,22.05
2023-01-21T18:58:57.156Z,15.07
2023-01-21T19:01:28.811Z,13.60
2023-01-21T19:03:57.842Z,20.70
2023-01-21T19:06:27.480Z,20.95
2023-01-21T19:08:58.574Z,20.35
2023-01-21T19:11:27.783Z,18.98
2023-01-21T19:13:57.862Z,13.75
2023-01-21T19:16:29.182Z,17.85
2023-01-21T19:18:59.394Z,16.35
2023-01-21T19:21:29.122Z,17.23
2023-01-21T19:23:59.931Z,18.83
2023-01-21T19:26:29.818Z,11.52
2023-01-21T19:28:59.947Z,21.48
2023-01-21T19:31:29.928Z,16.27
2023-01-21T19:33:59.843Z,18.70
2023-01-21T19:36:30.166Z,16.52
2023-01-21T19:39:01.633Z,20.00
2023-01-21T19:41:30.511Z,18.13
2023-01-21T19:43:59.762Z,19.67
2023-01-21T19:46:30.279Z,16.75
2023-01-21T19:49:00.285Z,19.15
2023-01-21T19:51:32.074Z,20.85
2023-01-21T19:54:02.812Z,22.60
2023-01-21T19:56:32.235Z,20.33
2023-01-21T19:59:02.859Z,19.08
2023-01-21T20:01:32.479Z,22.65
2023-01-21T20:04:01.793Z,21.92
2023-01-21T20:06:36.087Z,16.83
2023-01-21T20:09:07.114Z,23.00
2023-01-21T20:11:37.652Z,23.20
2023-01-21T20:14:08.033Z,16.77
2023-01-21T20:16:46.238Z,27.40
2023-01-21T20:19:17.902Z,16.95
2023-01-21T20:22:00.458Z,18.58
2023-01-21T20:24:34.416Z,18.08
2023-01-21T20:27:08.564Z,18.70
2023-01-21T20:29:49.647Z,15.57
2023-01-21T20:32:24.977Z,15.60
2023-01-21T20:34:58.131Z,23.02
2023-01-21T20:37:27.915Z,15.18
2023-01-21T20:39:58.914Z,17.25
2023-01-21T20:45:03.474Z,15.18
2023-01-21T20:47:38.180Z,21.83
2023-01-21T20:50:26.153Z,36.55
2023-01-21T20:52:55.316Z,23.77
2023-01-21T20:55:28.589Z,23.38
2023-01-21T20:58:02.029Z,25.10
2023-01-21T21:00:34.498Z,29.35
2023-01-21T21:03:04.323Z,29.55
2023-01-21T21:05:34.330Z,32.80
2023-01-21T21:08:05.052Z,35.00
2023-01-21T21:10:37.813Z,31.55
2023-01-21T21:13:07.104Z,26.42
2023-01-21T21:15:37.865Z,20.92
2023-01-21T21:18:07.240Z,21.02
2023-01-21T21:20:39.886Z,21.55
2023-01-21T21:23:10.913Z,22.60
2023-01-21T21:25:43.564Z,20.80
2023-01-21T21:28:14.572Z,20.70
2023-01-21T21:30:44.113Z,20.42
2023-01-21T21:33:18.599Z,21.75
2023-01-21T21:35:51.004Z,18.95
2023-01-21T21:38:26.517Z,21.80
2023-01-21T21:41:16.633Z,21.90
2023-01-21T21:43:47.541Z,19.95
2023-01-21T21:46:33.688Z,19.30
2023-01-21T21:49:02.049Z,20.65
2023-01-21T21:51:31.857Z,18.50
2023-01-21T21:54:02.438Z,19.02
2023-01-21T21:56:32.627Z,14.18
2023-01-21T21:59:01.253Z,16.27
2023-01-21T22:01:33.443Z,12.73
2023-01-21T22:04:02.007Z,17.20
2023-01-21T22:06:31.028Z,16.10
2023-01-21T22:08:59.799Z,15.93
2023-01-21T22:11:29.909Z,16.17
2023-01-21T22:14:03.903Z,14.75
2023-01-21T22:16:32.704Z,14.82
2023-01-21T22:19:01.172Z,13.63
2023-01-21T22:21:31.993Z,17.30
2023-01-21T22:24:00.457Z,15.52
2023-01-21T22:26:29.949Z,24.05
2023-01-21T22:28:59.610Z,15.18
2023-01-21T22:31:29.461Z,15.38
2023-01-21T22:33:58.569Z,18.92
2023-01-21T22:36:28.820Z,13.55
2023-01-21T22:38:57.189Z,11.52
2023-01-21T22:41:26.171Z,16.08
2023-01-21T22:43:55.038Z,13.63
2023-01-21T22:46:26.564Z,11.10
2023-01-21T22:48:55.354Z,14.05
2023-01-21T22:51:24.333Z,13.65
2023-01-21T22:53:53.072Z,11.65
2023-01-21T22:56:31.473Z,12.43
2023-01-21T22:59:08.298Z,16.95
2023-01-21T23:01:38.271Z,18.67
2023-01-21T23:04:06.687Z,15.70
2023-01-21T23:06:36.772Z,13.35
2023-01-21T23:09:08.177Z,11.38
2023-01-21T23:11:39.576Z,15.13
2023-01-21T23:14:08.824Z,16.10
2023-01-21T23:16:38.737Z,18.90
2023-01-21T23:19:07.077Z,18.98
2023-01-21T23:21:36.001Z,11.90
2023-01-21T23:24:04.325Z,10.35
2023-01-21T23:26:32.489Z,5.18
2023-01-21T23:29:00.638Z,14.85
2023-01-21T23:31:28.939Z,17.55
2023-01-21T23:33:58.800Z,11.40
2023-01-21T23:36:27.043Z,15.20
2023-01-21T23:38:55.296Z,14.07
2023-01-21T23:41:23.500Z,11.07
2023-01-21T23:43:51.625Z,11.95
2023-01-21T23:46:20.574Z,14.10
2023-01-21T23:48:49.028Z,15.30
2023-01-21T23:51:19.545Z,13.15
2023-01-21T23:53:49.146Z,13.32
2023-01-21T23:56:22.092Z,13.52
2023-01-21T23:58:51.041Z,12.32
